createdAt,value
2018-10-15T00:00:19.987Z,47.69
2018-10-15T00:02:48.911Z,47.39
2018-10-15T00:05:17.855Z,47.03
2018-10-15T00:07:46.814Z,46.84
2018-10-15T00:10:15.770Z,46.85
2018-10-15T00:12:44.755Z,47.42
2018-10-15T00:15:25.642Z,47.16
2018-10-15T00:17:54.678Z,47.01
2018-10-15T00:20:24.000Z,47.47
2018-10-15T00:22:53.704Z,47.20
2018-10-15T00:25:22.714Z,47.62
2018-10-15T00:27:51.675Z,47.81
2018-10-15T00:30:20.614Z,46.86
2018-10-15T00:32:49.617Z,47.26
2018-10-15T00:35:18.546Z,46.96
2018-10-15T00:37:47.495Z,47.06
2018-10-15T00:40:16.423Z,47.70
2018-10-15T00:42:45.393Z,46.91
2018-10-15T00:45:14.952Z,47.46
2018-10-15T00:47:43.882Z,46.83
2018-10-15T00:50:13.959Z,47.36
2018-10-15T00:52:43.318Z,47.14
2018-10-15T00:55:13.255Z,47.04
2018-10-15T00:57:42.282Z,47.36
2018-10-15T01:00:13.485Z,47.39
2018-10-15T01:02:42.489Z,47.47
2018-10-15T01:05:12.305Z,47.27
2018-10-15T01:07:41.671Z,47.49
2018-10-15T01:10:11.935Z,47.29
2018-10-15T01:15:29.918Z,47.70
2018-10-15T01:17:58.876Z,47.36
2018-10-15T01:20:27.846Z,47.26
2018-10-15T01:22:56.779Z,47.38
2018-10-15T01:25:25.713Z,48.20
2018-10-15T01:27:54.642Z,47.38
2018-10-15T01:30:23.606Z,47.64
2018-10-15T01:32:52.555Z,47.55
2018-10-15T01:35:21.507Z,47.20
2018-10-15T01:37:50.443Z,47.21
2018-10-15T01:40:19.435Z,47.59
2018-10-15T01:42:48.383Z,47.89
2018-10-15T01:45:17.343Z,47.89
2018-10-15T01:47:46.295Z,48.11
2018-10-15T01:50:15.252Z,48.40
2018-10-15T01:52:44.218Z,48.19
2018-10-15T01:55:13.196Z,48.13
2018-10-15T01:57:42.133Z,48.25
2018-10-15T02:00:11.324Z,48.92
2018-10-15T02:02:40.336Z,48.50
2018-10-15T02:05:09.740Z,48.50
2018-10-15T02:07:38.702Z,48.92
2018-10-15T02:10:08.135Z,48.82
2018-10-15T02:12:37.099Z,49.58
2018-10-15T02:15:06.324Z,49.15
2018-10-15T02:17:35.275Z,49.02
2018-10-15T02:20:04.387Z,49.56
2018-10-15T02:22:33.326Z,49.64
2018-10-15T02:25:02.279Z,48.80
2018-10-15T02:27:31.202Z,49.36
2018-10-15T02:30:00.164Z,49.66
2018-10-15T02:32:29.135Z,49.19
2018-10-15T02:34:58.088Z,49.35
2018-10-15T02:37:27.011Z,49.44
2018-10-15T02:39:55.986Z,49.18
2018-10-15T02:42:24.927Z,49.91
2018-10-15T02:44:53.875Z,49.48
2018-10-15T02:47:22.803Z,49.73
2018-10-15T02:49:51.747Z,49.29
2018-10-15T02:52:20.675Z,49.58
2018-10-15T02:54:49.630Z,50.62
2018-10-15T02:57:18.554Z,50.32
2018-10-15T02:59:47.509Z,50.70
2018-10-15T03:02:16.442Z,50.60
2018-10-15T03:04:45.604Z,50.78
2018-10-15T03:07:14.530Z,51.09
2018-10-15T03:09:43.492Z,51.55
2018-10-15T03:12:12.479Z,52.01
2018-10-15T03:14:41.431Z,52.17
2018-10-15T03:17:10.485Z,52.09
2018-10-15T03:19:39.466Z,52.36
2018-10-15T03:22:08.735Z,52.47
2018-10-15T03:24:37.771Z,52.21
2018-10-15T03:27:06.723Z,52.27
2018-10-15T03:29:35.723Z,52.73
2018-10-15T03:32:04.714Z,51.90
2018-10-15T03:34:33.642Z,52.75
2018-10-15T03:37:02.598Z,52.41
2018-10-15T03:39:31.538Z,52.08
2018-10-15T03:42:00.614Z,52.51
2018-10-15T03:44:29.551Z,52.22
2018-10-15T03:46:58.560Z,51.97
2018-10-15T03:49:27.520Z,51.82
2018-10-15T03:51:56.479Z,52.00
2018-10-15T03:54:25.411Z,52.37
2018-10-15T03:56:54.370Z,52.38
2018-10-15T03:59:23.321Z,53.44
2018-10-15T04:01:52.303Z,52.76
2018-10-15T04:04:21.264Z,53.13
2018-10-15T04:06:50.230Z,53.53
2018-10-15T04:09:19.170Z,53.91
2018-10-15T04:11:48.127Z,54.14
2018-10-15T04:14:17.091Z,53.78
2018-10-15T04:16:46.082Z,53.48
2018-10-15T04:19:15.027Z,53.84
2018-10-15T04:21:43.991Z,53.96
2018-10-15T04:24:12.943Z,54.30
2018-10-15T04:26:41.917Z,54.99
2018-10-15T04:29:11.036Z,54.86
2018-10-15T04:31:39.992Z,54.75
2018-10-15T04:34:08.928Z,55.36
2018-10-15T04:36:37.898Z,55.20
2018-10-15T04:39:08.830Z,55.53
2018-10-15T04:41:38.642Z,55.22
2018-10-15T04:44:07.819Z,55.56
2018-10-15T04:46:36.791Z,55.63
2018-10-15T04:49:05.825Z,56.00
2018-10-15T04:51:34.751Z,55.66
2018-10-15T04:54:03.710Z,56.51
2018-10-15T04:56:32.692Z,56.61
2018-10-15T04:59:01.623Z,56.69
2018-10-15T05:01:30.591Z,57.19
2018-10-15T05:03:59.546Z,57.64
2018-10-15T05:06:28.531Z,57.61
2018-10-15T05:08:57.479Z,57.64
2018-10-15T05:11:26.447Z,57.87
2018-10-15T05:13:55.402Z,56.91
2018-10-15T05:16:24.428Z,56.94
2018-10-15T05:18:53.406Z,56.90
2018-10-15T05:21:22.499Z,57.70
2018-10-15T05:23:51.390Z,56.97
2018-10-15T05:26:20.730Z,57.02
2018-10-15T05:28:49.707Z,56.83
2018-10-15T05:31:18.699Z,56.62
2018-10-15T05:33:47.666Z,56.75
2018-10-15T05:36:16.695Z,56.20
2018-10-15T05:38:45.676Z,56.59
2018-10-15T05:41:14.659Z,56.17
2018-10-15T05:43:43.683Z,56.21
2018-10-15T05:46:12.684Z,55.71
2018-10-15T05:48:41.697Z,55.78
2018-10-15T05:51:10.667Z,55.91
2018-10-15T05:53:39.678Z,56.17
2018-10-15T05:56:08.712Z,55.69
2018-10-15T05:58:37.727Z,55.94
2018-10-15T06:01:06.732Z,55.35
2018-10-15T06:03:35.719Z,55.80
2018-10-15T06:06:04.856Z,55.66
2018-10-15T06:08:33.761Z,56.15
2018-10-15T06:11:02.747Z,55.93
2018-10-15T06:13:31.804Z,56.16
2018-10-15T06:16:00.732Z,55.86
2018-10-15T06:18:29.743Z,55.80
2018-10-15T06:20:58.784Z,55.51
2018-10-15T06:23:27.738Z,55.86
2018-10-15T06:25:56.710Z,55.55
2018-10-15T06:28:25.758Z,56.32
2018-10-15T06:30:54.643Z,55.89
2018-10-15T06:33:36.778Z,55.94
2018-10-15T06:36:06.008Z,56.09
2018-10-15T06:38:35.256Z,55.66
2018-10-15T06:41:04.280Z,55.90
2018-10-15T06:43:33.306Z,55.17
2018-10-15T06:46:02.253Z,55.24
2018-10-15T06:48:31.203Z,55.12
2018-10-15T06:51:00.183Z,54.83
2018-10-15T06:53:29.183Z,54.97
2018-10-15T06:55:58.183Z,55.30
2018-10-15T06:58:27.134Z,54.97
2018-10-15T07:00:56.113Z,54.90
2018-10-15T07:03:25.100Z,55.05
2018-10-15T07:05:54.136Z,54.54
2018-10-15T07:08:23.107Z,54.31
2018-10-15T07:10:52.047Z,54.53
2018-10-15T07:13:21.127Z,54.46
2018-10-15T07:15:49.951Z,53.83
2018-10-15T07:18:19.000Z,54.46
2018-10-15T07:20:47.947Z,54.67
2018-10-15T07:23:16.866Z,54.42
2018-10-15T07:25:45.798Z,53.42
2018-10-15T07:28:14.823Z,53.82
2018-10-15T07:30:43.722Z,53.65
2018-10-15T07:33:12.670Z,53.96
2018-10-15T07:35:41.598Z,53.74
2018-10-15T07:38:10.580Z,53.22
2018-10-15T07:40:39.511Z,53.96
2018-10-15T07:43:08.540Z,53.05
2018-10-15T07:45:38.403Z,52.76
2018-10-15T07:48:07.493Z,53.03
2018-10-15T07:50:36.419Z,52.93
2018-10-15T07:53:05.423Z,51.87
2018-10-15T07:55:34.478Z,52.24
2018-10-15T07:58:03.632Z,52.02
2018-10-15T08:00:32.613Z,51.81
2018-10-15T08:03:01.587Z,52.18
2018-10-15T08:05:30.546Z,52.44
2018-10-15T08:07:59.552Z,52.39
2018-10-15T08:10:28.514Z,52.50
2018-10-15T08:12:57.487Z,51.82
2018-10-15T08:15:26.547Z,51.18
2018-10-15T08:17:55.434Z,49.99
2018-10-15T08:20:24.572Z,50.73
2018-10-15T08:22:53.524Z,50.29
2018-10-15T08:25:22.495Z,50.85
2018-10-15T08:27:51.484Z,50.77
2018-10-15T08:30:20.807Z,50.00
2018-10-15T08:32:49.881Z,49.64
2018-10-15T08:35:18.901Z,49.02
2018-10-15T08:37:47.816Z,49.42
2018-10-15T08:40:18.108Z,48.65
2018-10-15T08:42:48.395Z,48.56
2018-10-15T08:45:19.567Z,48.03
2018-10-15T08:47:49.010Z,48.33
2018-10-15T08:50:18.539Z,47.63
2018-10-15T08:52:48.513Z,47.52
2018-10-15T08:55:17.899Z,46.83
2018-10-15T08:57:46.862Z,47.14
2018-10-15T09:00:19.114Z,46.55
2018-10-15T09:02:48.649Z,46.99
2018-10-15T09:05:17.838Z,46.59
2018-10-15T09:07:47.736Z,46.97
2018-10-15T09:10:17.785Z,46.04
2018-10-15T09:12:46.803Z,46.25
2018-10-15T09:15:22.094Z,45.26
2018-10-15T09:17:51.189Z,45.10
2018-10-15T09:20:20.296Z,44.59
2018-10-15T09:22:49.240Z,44.97
2018-10-15T09:25:19.294Z,45.61
2018-10-15T09:27:48.541Z,44.47
2018-10-15T09:30:18.927Z,44.32
2018-10-15T09:32:47.951Z,44.07
2018-10-15T09:35:17.878Z,43.70
2018-10-15T09:37:47.566Z,44.29
2018-10-15T09:40:17.858Z,43.02
2018-10-15T09:42:47.311Z,43.37
2018-10-15T09:45:17.586Z,42.23
2018-10-15T09:47:47.893Z,43.29
2018-10-15T09:50:16.984Z,42.64
2018-10-15T09:52:45.955Z,43.25
2018-10-15T09:55:15.571Z,42.10
2018-10-15T09:57:44.798Z,41.07
2018-10-15T10:00:20.170Z,41.08
2018-10-15T10:02:51.476Z,40.04
2018-10-15T10:05:20.450Z,40.92
2018-10-15T10:07:49.667Z,40.78
2018-10-15T10:10:18.750Z,39.99
2018-10-15T10:12:47.719Z,40.36
2018-10-15T10:15:17.067Z,39.87
2018-10-15T10:17:46.578Z,40.10
2018-10-15T10:20:16.071Z,38.72
2018-10-15T10:22:45.192Z,38.10
2018-10-15T10:25:15.274Z,38.24
2018-10-15T10:27:44.255Z,38.67
2018-10-15T10:30:14.498Z,38.36
2018-10-15T10:32:43.816Z,38.08
2018-10-15T10:36:09.123Z,38.62
2018-10-15T10:38:49.267Z,38.64
2018-10-15T10:41:18.283Z,36.80
2018-10-15T10:43:47.251Z,38.23
2018-10-15T10:46:16.246Z,37.28
2018-10-15T10:48:45.218Z,37.78
2018-10-15T10:51:14.246Z,37.04
2018-10-15T10:53:43.214Z,38.00
2018-10-15T10:56:12.222Z,39.00
2018-10-15T10:58:41.287Z,38.27
2018-10-15T11:01:10.494Z,39.06
2018-10-15T11:03:39.979Z,38.03
2018-10-15T11:06:09.156Z,38.50
2018-10-15T11:08:38.202Z,36.80
2018-10-15T11:11:07.675Z,37.47
2018-10-15T11:13:36.646Z,37.13
2018-10-15T11:16:05.978Z,36.66
2018-10-15T11:18:35.051Z,37.19
2018-10-15T11:21:04.129Z,37.11
2018-10-15T11:23:33.162Z,37.10
2018-10-15T11:26:02.156Z,36.60
2018-10-15T11:28:31.127Z,35.64
2018-10-15T11:31:00.121Z,36.45
2018-10-15T11:33:29.179Z,34.51
2018-10-15T11:35:58.167Z,35.22
2018-10-15T11:38:27.148Z,35.94
2018-10-15T11:40:56.108Z,34.91
2018-10-15T11:43:25.204Z,35.31
2018-10-15T11:45:54.139Z,36.18
2018-10-15T11:48:23.115Z,36.02
2018-10-15T11:50:52.086Z,36.19
2018-10-15T11:53:21.076Z,36.50
2018-10-15T11:55:50.047Z,36.33
2018-10-15T11:58:19.012Z,35.33
2018-10-15T12:00:47.994Z,36.87
2018-10-15T12:03:17.048Z,35.16
2018-10-15T12:05:46.028Z,35.83
2018-10-15T12:08:15.026Z,36.09
2018-10-15T12:10:43.995Z,35.53
2018-10-15T12:13:12.979Z,34.79
2018-10-15T12:15:42.179Z,35.45
2018-10-15T12:18:11.172Z,34.44
2018-10-15T12:20:40.115Z,34.40
2018-10-15T12:23:09.090Z,33.61
2018-10-15T12:25:38.067Z,34.68
2018-10-15T12:28:07.022Z,34.69
2018-10-15T12:30:35.983Z,34.81
2018-10-15T12:33:05.379Z,34.70
2018-10-15T12:35:34.327Z,34.94
2018-10-15T12:38:03.319Z,33.94
2018-10-15T12:40:32.272Z,34.42
2018-10-15T12:43:01.750Z,35.19
2018-10-15T12:45:36.111Z,34.55
2018-10-15T12:48:05.472Z,35.11
2018-10-15T12:50:34.449Z,34.75
2018-10-15T12:53:03.523Z,34.41
2018-10-15T12:55:32.461Z,33.22
2018-10-15T12:58:01.447Z,34.26
2018-10-15T13:00:30.414Z,35.43
2018-10-15T13:02:59.378Z,33.80
2018-10-15T13:05:29.783Z,34.70
2018-10-15T13:07:59.296Z,34.27
2018-10-15T13:10:29.059Z,33.74
2018-10-15T13:12:58.040Z,34.12
2018-10-15T13:15:27.035Z,34.25
2018-10-15T13:17:56.485Z,33.43
2018-10-15T13:20:25.471Z,34.69
2018-10-15T13:22:54.475Z,34.69
2018-10-15T13:25:23.411Z,34.03
2018-10-15T13:27:52.423Z,33.54
2018-10-15T13:30:21.370Z,33.71
2018-10-15T13:32:51.251Z,33.25
2018-10-15T13:35:20.203Z,34.26
2018-10-15T13:37:49.167Z,34.39
2018-10-15T13:40:18.103Z,34.09
2018-10-15T13:42:47.131Z,33.53
2018-10-15T13:45:16.101Z,33.19
2018-10-15T13:47:45.075Z,33.62
2018-10-15T13:50:14.020Z,32.76
2018-10-15T13:52:43.133Z,33.12
2018-10-15T13:55:12.875Z,32.66
2018-10-15T13:57:42.489Z,33.08
2018-10-15T14:00:22.835Z,32.77
2018-10-15T14:02:51.826Z,33.35
2018-10-15T14:05:20.783Z,34.55
2018-10-15T14:07:49.760Z,33.39
2018-10-15T14:10:18.695Z,33.78
2018-10-15T14:12:47.638Z,33.11
2018-10-15T14:15:16.636Z,33.33
2018-10-15T14:17:45.602Z,32.54
2018-10-15T14:20:14.616Z,33.39
2018-10-15T14:22:44.381Z,32.94
2018-10-15T14:25:14.203Z,33.71
2018-10-15T14:27:43.241Z,34.45
2018-10-15T14:30:14.444Z,33.50
2018-10-15T14:32:43.426Z,33.96
2018-10-15T14:35:13.440Z,35.39
2018-10-15T14:37:42.944Z,33.11
2018-10-15T14:40:16.136Z,34.20
2018-10-15T14:42:45.190Z,34.57
2018-10-15T14:45:15.258Z,34.36
2018-10-15T14:47:44.246Z,33.89
2018-10-15T14:50:15.482Z,34.25
2018-10-15T14:52:46.599Z,33.31
2018-10-15T14:55:15.558Z,34.91
2018-10-15T14:57:44.530Z,35.81
2018-10-15T15:00:14.511Z,35.45
2018-10-15T15:02:43.466Z,34.73
2018-10-15T15:05:13.015Z,35.89
2018-10-15T15:07:42.050Z,35.24
2018-10-15T15:10:22.975Z,34.87
2018-10-15T15:13:03.335Z,35.21
2018-10-15T15:15:32.319Z,35.58
2018-10-15T15:18:01.402Z,34.94
2018-10-15T15:20:30.437Z,35.73
2018-10-15T15:22:59.365Z,35.15
2018-10-15T15:25:28.335Z,35.46
2018-10-15T15:27:57.313Z,35.29
2018-10-15T15:30:26.295Z,36.31
2018-10-15T15:32:55.343Z,37.15
2018-10-15T15:35:24.223Z,36.76
2018-10-15T15:37:53.158Z,36.37
2018-10-15T15:40:22.141Z,36.67
2018-10-15T15:42:51.098Z,37.06
2018-10-15T15:45:20.095Z,36.44
2018-10-15T15:47:49.047Z,36.82
2018-10-15T15:50:18.042Z,36.51
2018-10-15T15:52:46.990Z,35.91
2018-10-15T15:55:15.964Z,37.16
2018-10-15T15:57:44.905Z,36.64
2018-10-15T16:00:14.219Z,36.58
2018-10-15T16:02:43.358Z,36.08
2018-10-15T16:05:12.439Z,36.75
2018-10-15T16:07:41.404Z,36.50
2018-10-15T16:10:11.302Z,37.45
2018-10-15T16:12:40.280Z,37.44
2018-10-15T16:15:10.062Z,37.11
2018-10-15T16:17:39.203Z,37.93
2018-10-15T16:20:09.005Z,37.99
2018-10-15T16:22:38.005Z,37.69
2018-10-15T16:25:07.234Z,37.77
2018-10-15T16:27:36.578Z,37.56
2018-10-15T16:30:06.431Z,37.78
2018-10-15T16:32:35.427Z,38.65
2018-10-15T16:35:04.749Z,38.32
2018-10-15T16:37:33.671Z,39.09
2018-10-15T16:40:02.598Z,38.63
2018-10-15T16:42:31.676Z,39.11
2018-10-15T16:45:00.603Z,39.08
2018-10-15T16:47:29.560Z,39.54
2018-10-15T16:49:58.594Z,39.98
2018-10-15T16:52:27.554Z,40.60
2018-10-15T16:54:56.479Z,42.05
2018-10-15T16:57:25.455Z,42.31
2018-10-15T17:05:01.631Z,43.41
2018-10-15T17:07:30.602Z,43.08
2018-10-15T17:09:59.536Z,42.89
2018-10-15T17:12:28.474Z,43.79
2018-10-15T17:14:57.403Z,43.70
2018-10-15T17:17:26.371Z,43.44
2018-10-15T17:19:55.286Z,43.01
2018-10-15T17:22:24.239Z,44.17
2018-10-15T17:24:53.178Z,44.36
2018-10-15T17:27:22.131Z,44.51
2018-10-15T17:29:51.176Z,44.55
2018-10-15T17:32:20.134Z,43.84
2018-10-15T17:34:49.071Z,45.01
2018-10-15T17:37:18.027Z,44.80
2018-10-15T17:39:46.970Z,44.70
2018-10-15T17:42:15.949Z,45.14
2018-10-15T17:44:44.875Z,44.95
2018-10-15T17:47:14.250Z,44.91
2018-10-15T17:49:43.183Z,44.97
2018-10-15T17:52:12.241Z,45.49
2018-10-15T17:54:41.119Z,45.82
2018-10-15T17:57:10.110Z,45.20
2018-10-15T17:59:39.059Z,45.30
2018-10-15T18:02:08.011Z,45.49
2018-10-15T18:04:36.966Z,46.01
2018-10-15T18:07:05.946Z,46.44
2018-10-15T18:09:34.883Z,45.91
2018-10-15T18:12:03.917Z,46.15
2018-10-15T18:14:32.809Z,46.52
2018-10-15T18:17:01.773Z,46.99
2018-10-15T18:19:30.716Z,46.25
2018-10-15T18:21:59.650Z,46.23
2018-10-15T18:24:28.611Z,46.43
2018-10-15T18:26:57.556Z,46.97
2018-10-15T18:29:26.805Z,46.83
2018-10-15T18:31:55.882Z,46.96
2018-10-15T18:34:24.886Z,47.88
2018-10-15T18:36:53.868Z,47.39
2018-10-15T18:39:23.205Z,47.94
2018-10-15T18:41:52.187Z,48.69
2018-10-15T18:44:21.145Z,48.55
2018-10-15T18:46:50.077Z,48.63
2018-10-15T18:49:19.042Z,48.46
2018-10-15T18:51:48.019Z,48.39
2018-10-15T18:54:16.926Z,48.33
2018-10-15T18:56:45.875Z,48.51
2018-10-15T18:59:14.814Z,48.31
2018-10-15T19:01:43.767Z,48.40
2018-10-15T19:04:12.731Z,48.95
2018-10-15T19:06:41.798Z,48.39
2018-10-15T19:09:11.687Z,48.88
2018-10-15T19:11:41.043Z,49.18
2018-10-15T19:14:10.677Z,49.59
2018-10-15T19:16:39.646Z,49.61
2018-10-15T19:19:09.231Z,49.78
2018-10-15T19:21:38.123Z,49.70
2018-10-15T19:24:07.160Z,48.93
2018-10-15T19:26:36.075Z,48.57
2018-10-15T19:29:05.085Z,49.41
2018-10-15T19:31:33.986Z,49.22
2018-10-15T19:34:02.940Z,49.34
2018-10-15T19:36:31.874Z,48.83
2018-10-15T19:39:01.006Z,48.78
2018-10-15T19:41:29.957Z,48.73
2018-10-15T19:43:58.900Z,48.82
2018-10-15T19:46:27.974Z,48.49
2018-10-15T19:48:56.943Z,48.54
2018-10-15T19:51:25.869Z,49.13
2018-10-15T19:53:54.814Z,49.24
2018-10-15T19:56:23.767Z,48.76
2018-10-15T19:58:52.743Z,49.04
2018-10-15T20:01:21.674Z,48.96
2018-10-15T20:03:50.753Z,49.25
2018-10-15T20:06:19.712Z,48.90
2018-10-15T20:08:48.714Z,49.47
2018-10-15T20:11:17.683Z,48.76
2018-10-15T20:13:46.662Z,49.20
2018-10-15T20:16:15.646Z,48.96
2018-10-15T20:18:44.723Z,49.08
2018-10-15T20:21:14.251Z,49.10
2018-10-15T20:23:43.234Z,49.04
2018-10-15T20:26:12.171Z,48.91
2018-10-15T20:28:41.204Z,50.08
2018-10-15T20:31:10.167Z,50.01
2018-10-15T20:33:39.126Z,49.84
2018-10-15T20:36:08.098Z,50.15
2018-10-15T20:38:37.077Z,50.19
2018-10-15T20:41:06.194Z,49.88
2018-10-15T20:43:35.181Z,49.77
2018-10-15T20:46:04.223Z,50.42
2018-10-15T20:48:33.256Z,50.74
2018-10-15T20:51:02.305Z,49.96
2018-10-15T20:53:31.241Z,51.25
2018-10-15T20:56:00.342Z,50.75
2018-10-15T20:58:29.299Z,50.81
2018-10-15T21:00:58.311Z,50.44
2018-10-15T21:03:27.366Z,51.03
2018-10-15T21:05:56.379Z,51.15
2018-10-15T21:08:25.554Z,50.93
2018-10-15T21:10:54.591Z,50.99
2018-10-15T21:13:23.634Z,51.88
2018-10-15T21:15:52.730Z,51.43
2018-10-15T21:18:21.898Z,52.19
2018-10-15T21:25:56.757Z,52.68
2018-10-15T21:28:25.826Z,52.53
2018-10-15T21:30:54.911Z,52.67
2018-10-15T21:33:23.869Z,51.99
2018-10-15T21:35:52.974Z,52.05
2018-10-15T21:38:22.039Z,52.42
2018-10-15T21:40:51.019Z,51.84
2018-10-15T21:43:20.103Z,52.14
2018-10-15T21:45:49.253Z,52.62
2018-10-15T21:48:18.202Z,52.09
2018-10-15T21:50:47.227Z,52.23
2018-10-15T21:53:16.185Z,52.40
2018-10-15T21:55:45.290Z,52.62
2018-10-15T21:58:14.283Z,52.19
2018-10-15T22:00:48.526Z,52.08
2018-10-15T22:03:17.639Z,51.86
2018-10-15T22:05:46.633Z,51.84
2018-10-15T22:08:15.627Z,52.79
2018-10-15T22:10:44.619Z,52.59
2018-10-15T22:13:13.582Z,52.50
2018-10-15T22:15:42.543Z,53.24
2018-10-15T22:18:12.245Z,52.63
2018-10-15T22:20:41.223Z,52.72
2018-10-15T22:23:10.233Z,52.94
2018-10-15T22:25:39.182Z,52.84
2018-10-15T22:28:08.435Z,52.99
2018-10-15T22:30:37.452Z,53.36
2018-10-15T22:33:06.427Z,52.87
2018-10-15T22:35:35.378Z,53.06
2018-10-15T22:38:04.355Z,53.65
2018-10-15T22:40:33.318Z,53.73
2018-10-15T22:43:02.333Z,53.96
2018-10-15T22:45:31.344Z,54.15
2018-10-15T22:48:00.320Z,54.55
2018-10-15T22:50:29.266Z,54.49
2018-10-15T22:52:58.233Z,55.25
2018-10-15T22:55:27.198Z,54.77
2018-10-15T22:57:56.182Z,54.87
2018-10-15T23:00:25.159Z,54.96
2018-10-15T23:02:54.125Z,54.81
2018-10-15T23:05:23.088Z,54.45
2018-10-15T23:07:52.054Z,54.71
2018-10-15T23:10:26.299Z,54.27
2018-10-15T23:12:55.275Z,54.15
2018-10-15T23:15:24.231Z,54.33
2018-10-15T23:17:53.268Z,54.18
2018-10-15T23:20:22.250Z,54.46
2018-10-15T23:22:51.246Z,54.61
2018-10-15T23:25:20.217Z,54.18
2018-10-15T23:27:49.214Z,54.50
2018-10-15T23:30:18.191Z,54.32
2018-10-15T23:32:47.195Z,54.73
2018-10-15T23:35:16.174Z,54.82
2018-10-15T23:37:45.155Z,54.49
2018-10-15T23:40:14.679Z,54.83
2018-10-15T23:42:43.666Z,54.65
2018-10-15T23:45:13.074Z,53.66
2018-10-15T23:47:42.282Z,54.22
2018-10-15T23:50:13.320Z,53.57
2018-10-15T23:52:42.327Z,54.29
2018-10-15T23:55:12.441Z,53.88
2018-10-15T23:57:41.455Z,53.69
